Time;durP1;ratioP1;P1;durP2;ratioP2;P2;SDS_P1;SDS_P2;PMS_P1;PMS_P2;Temp;Humidity;BMP_temperature;BMP_pressure;BME280_temperature;BME280_humidity;BME280_pressure;Samples;Min_cycle;Max_cycle;Signal;HPM_P1;HPM_P2
2023/09/24 00:02:12;;;;;;;17.53;15.73;;;12.20;94.90;;;;;;5115986;28;20158;-88
2023/09/24 00:04:39;;;;;;;20.67;15.60;;;12.30;94.90;;;;;;5115402;28;20221;-89
2023/09/24 00:07:05;;;;;;;17.53;15.83;;;12.30;94.90;;;;;;5116072;27;20190;-89
2023/09/24 00:09:31;;;;;;;17.67;13.23;;;12.30;94.90;;;;;;5114598;28;20669;-88
2023/09/24 00:11:57;;;;;;;16.23;12.20;;;12.30;94.90;;;;;;5114342;28;20231;-89
2023/09/24 00:14:23;;;;;;;17.67;15.83;;;12.30;94.90;;;;;;5114366;28;20198;-89
2023/09/24 00:16:48;;;;;;;22.33;17.90;;;12.30;94.90;;;;;;5114495;28;20182;-89
2023/09/24 00:19:14;;;;;;;16.53;14.93;;;12.30;94.90;;;;;;5115786;28;20219;-89
2023/09/24 00:21:40;;;;;;;18.47;12.77;;;12.20;94.90;;;;;;5114323;28;20180;-88
2023/09/24 00:24:07;;;;;;;13.43;11.60;;;12.20;94.90;;;;;;5115973;28;20714;-89
2023/09/24 00:26:32;;;;;;;20.20;12.17;;;12.20;94.90;;;;;;5115360;28;20225;-89
2023/09/24 00:28:58;;;;;;;14.97;11.83;;;12.20;94.90;;;;;;5114104;28;20691;-89
2023/09/24 00:31:25;;;;;;;15.97;11.63;;;12.20;94.90;;;;;;5115291;28;20170;-89
2023/09/24 00:33:54;;;;;;;14.97;11.93;;;12.20;94.90;;;;;;5114122;28;20225;-89
2023/09/24 00:36:19;;;;;;;13.87;11.53;;;12.20;94.90;;;;;;5114245;28;20600;-89
2023/09/24 00:38:45;;;;;;;12.30;11.00;;;12.20;94.90;;;;;;5115454;27;20249;-87
2023/09/24 00:41:10;;;;;;;15.97;12.00;;;12.20;94.90;;;;;;5115385;28;20542;-88
2023/09/24 00:43:36;;;;;;;22.37;11.00;;;12.30;94.90;;;;;;5114888;28;20205;-88
2023/09/24 00:46:04;;;;;;;13.43;11.17;;;12.30;94.90;;;;;;5115239;28;20169;-87
2023/09/24 00:48:32;;;;;;;16.07;10.97;;;12.20;94.80;;;;;;5115198;28;20633;-87
2023/09/24 00:50:59;;;;;;;14.43;10.87;;;12.20;94.80;;;;;;5113682;28;20170;-88
2023/09/24 00:53:27;;;;;;;14.03;10.90;;;12.20;94.80;;;;;;5113612;28;20555;-88
2023/09/24 00:55:54;;;;;;;20.33;11.47;;;12.20;94.80;;;;;;5113485;28;20193;-88
2023/09/24 00:58:22;;;;;;;19.00;10.50;;;12.20;94.70;;;;;;5114777;28;20181;-88
2023/09/24 01:00:48;;;;;;;15.67;10.63;;;12.10;94.70;;;;;;5113501;28;20181;-89
2023/09/24 01:03:14;;;;;;;16.33;10.83;;;12.10;94.70;;;;;;5113312;28;20174;-88
2023/09/24 01:05:40;;;;;;;13.30;10.03;;;12.10;94.70;;;;;;5114739;28;20174;-88
2023/09/24 01:08:06;;;;;;;22.53;10.67;;;12.10;94.70;;;;;;5114592;28;20681;-88
2023/09/24 01:10:32;;;;;;;14.47;10.50;;;12.10;94.60;;;;;;5114668;28;20243;-88
2023/09/24 01:13:01;;;;;;;13.33;10.93;;;12.10;94.60;;;;;;5113378;28;20170;-88
2023/09/24 01:15:27;;;;;;;12.40;9.43;;;12.00;94.60;;;;;;5114297;28;20193;-88
2023/09/24 01:17:53;;;;;;;12.73;10.03;;;12.10;94.60;;;;;;5113674;28;20186;-88
2023/09/24 01:20:21;;;;;;;12.87;10.23;;;12.10;94.60;;;;;;5113191;28;20181;-88
2023/09/24 01:22:48;;;;;;;17.97;10.60;;;12.10;94.50;;;;;;5113243;28;20181;-88
2023/09/24 01:25:14;;;;;;;13.33;8.63;;;12.00;94.50;;;;;;5113820;28;20194;-88
2023/09/24 01:27:39;;;;;;;15.53;9.90;;;12.00;94.50;;;;;;5113273;28;20206;-88
2023/09/24 01:30:06;;;;;;;21.17;9.80;;;12.00;94.50;;;;;;5114414;28;20166;-88
2023/09/24 01:32:32;;;;;;;13.50;10.73;;;12.00;94.40;;;;;;5114199;28;20207;-88
2023/09/24 01:35:01;;;;;;;14.37;11.27;;;12.00;94.40;;;;;;5112949;28;20220;-88
2023/09/24 01:37:27;;;;;;;16.23;11.97;;;11.80;94.30;;;;;;5112747;28;20216;-89
2023/09/24 01:39:53;;;;;;;12.60;10.77;;;11.70;94.30;;;;;;5114006;28;20174;-88
2023/09/24 01:42:20;;;;;;;15.57;10.03;;;11.80;94.30;;;;;;5112952;28;20285;-88
2023/09/24 01:44:45;;;;;;;12.43;9.33;;;11.70;94.30;;;;;;5113915;28;20571;-88
2023/09/24 01:47:11;;;;;;;11.00;9.37;;;11.80;94.30;;;;;;5113879;28;20205;-88
2023/09/24 01:49:37;;;;;;;11.00;8.77;;;11.70;94.30;;;;;;5114172;28;20170;-88
2023/09/24 01:52:04;;;;;;;20.57;8.93;;;11.70;94.30;;;;;;5114002;28;20174;-88
2023/09/24 01:54:30;;;;;;;12.10;9.27;;;11.70;94.30;;;;;;5112778;28;20193;-88
2023/09/24 01:56:57;;;;;;;11.73;8.97;;;11.70;94.30;;;;;;5112968;28;20205;-89
2023/09/24 01:59:23;;;;;;;15.33;9.27;;;11.70;94.20;;;;;;5112656;28;20209;-88
2023/09/24 02:01:50;;;;;;;12.07;8.40;;;11.60;94.20;;;;;;5113705;28;20209;-88
2023/09/24 02:04:16;;;;;;;25.00;13.17;;;11.70;94.20;;;;;;5112442;28;20194;-88
2023/09/24 02:06:42;;;;;;;15.37;12.90;;;11.50;94.10;;;;;;5112505;28;20726;-88
2023/09/24 02:09:07;;;;;;;16.80;13.63;;;11.50;94.10;;;;;;5112754;28;20215;-89
2023/09/24 02:11:33;;;;;;;20.60;12.97;;;11.50;94.10;;;;;;5112524;28;20177;-88
2023/09/24 02:13:58;;;;;;;16.57;13.20;;;11.60;94.20;;;;;;5113656;28;20186;-88
2023/09/24 02:16:24;;;;;;;15.70;12.57;;;11.50;94.10;;;;;;5113600;28;20165;-88
2023/09/24 02:18:49;;;;;;;17.10;13.00;;;11.50;94.10;;;;;;5114258;28;20166;-88
2023/09/24 02:21:17;;;;;;;18.40;14.37;;;11.40;94.00;;;;;;5113665;28;20201;-88
2023/09/24 02:23:43;;;;;;;15.27;12.43;;;11.40;94.00;;;;;;5112230;28;20190;-88
2023/09/24 02:26:09;;;;;;;16.90;14.37;;;11.30;94.00;;;;;;5113498;28;20174;-88
2023/09/24 02:28:38;;;;;;;33.73;30.77;;;11.20;93.90;;;;;;5112338;28;20170;-88
2023/09/24 02:31:10;;;;;;;22.20;15.40;;;11.10;93.90;;;;;;5113581;28;20177;-88
2023/09/24 02:33:36;;;;;;;17.90;16.23;;;11.10;93.90;;;;;;5113617;28;20193;-89
2023/09/24 02:36:02;;;;;;;20.10;18.20;;;11.00;93.90;;;;;;5113206;28;20161;-88
2023/09/24 02:38:28;;;;;;;22.23;20.10;;;10.90;94.00;;;;;;5117706;28;20166;-88
2023/09/24 02:40:57;;;;;;;16.40;14.80;;;10.90;94.00;;;;;;5117560;28;20169;-88
2023/09/24 02:43:23;;;;;;;13.60;10.10;;;10.80;94.00;;;;;;5116243;28;20174;-88
2023/09/24 02:45:49;;;;;;;13.87;10.97;;;10.90;94.10;;;;;;5117351;28;20253;-88
2023/09/24 02:48:18;;;;;;;16.53;14.77;;;10.90;94.20;;;;;;5116176;28;20233;-89
2023/09/24 02:50:44;;;;;;;17.30;14.53;;;10.90;94.40;;;;;;5117263;28;20535;-89
2023/09/24 02:53:10;;;;;;;17.07;15.33;;;11.00;94.40;;;;;;5116063;28;20261;-89
2023/09/24 02:55:36;;;;;;;16.30;10.43;;;11.00;94.50;;;;;;5116051;28;20244;-89
2023/09/24 02:58:04;;;;;;;14.50;10.50;;;11.00;94.50;;;;;;5115982;28;20178;-89
2023/09/24 03:00:35;;;;;;;11.60;10.40;;;11.00;94.50;;;;;;5116085;28;20186;-89
2023/09/24 03:03:03;;;;;;;16.20;10.47;;;11.00;94.50;;;;;;5117071;28;20158;-88
2023/09/24 03:05:29;;;;;;;16.07;11.00;;;11.00;94.50;;;;;;5116994;28;20238;-89
2023/09/24 03:07:56;;;;;;;17.83;11.50;;;11.10;94.60;;;;;;5115753;28;20206;-88
2023/09/24 03:10:22;;;;;;;20.27;10.73;;;11.00;94.60;;;;;;5117535;28;20645;-89
2023/09/24 03:12:49;;;;;;;20.50;10.87;;;11.10;94.60;;;;;;5116888;28;20178;-89
2023/09/24 03:15:15;;;;;;;18.60;12.00;;;11.00;94.60;;;;;;5115743;28;20608;-88
2023/09/24 03:17:43;;;;;;;12.67;11.33;;;11.00;94.50;;;;;;5115839;28;20742;-88
2023/09/24 03:20:17;;;;;;;14.33;10.50;;;11.00;94.50;;;;;;5115629;28;20196;-89
2023/09/24 03:22:53;;;;;;;13.37;9.73;;;10.90;94.50;;;;;;5116746;28;20241;-89
2023/09/24 03:25:19;;;;;;;16.10;10.83;;;11.00;94.50;;;;;;5115451;28;20654;-89
2023/09/24 03:27:47;;;;;;;14.37;9.93;;;10.90;94.50;;;;;;5115196;28;20213;-89
2023/09/24 03:30:17;;;;;;;11.40;9.33;;;10.90;94.50;;;;;;5116503;27;20563;-88
2023/09/24 03:32:44;;;;;;;15.17;9.43;;;10.90;94.50;;;;;;5115243;28;20713;-89
2023/09/24 03:35:11;;;;;;;12.87;9.00;;;10.80;94.40;;;;;;5116434;28;20198;-88
2023/09/24 03:37:37;;;;;;;13.37;8.90;;;10.80;94.40;;;;;;5115082;28;20181;-89
2023/09/24 03:40:05;;;;;;;13.23;9.50;;;10.70;94.30;;;;;;5115211;28;20193;-88
2023/09/24 03:42:31;;;;;;;12.33;10.27;;;10.70;94.30;;;;;;5115125;28;20182;-88
2023/09/24 03:44:57;;;;;;;12.17;9.27;;;10.80;94.40;;;;;;5116218;28;20209;-89
2023/09/24 03:47:22;;;;;;;10.47;9.37;;;10.80;94.40;;;;;;5115868;28;20359;-88
2023/09/24 03:49:48;;;;;;;17.00;9.40;;;10.80;94.40;;;;;;5114881;28;20594;-89
2023/09/24 03:52:14;;;;;;;13.77;9.57;;;10.80;94.40;;;;;;5114844;28;20258;-89
2023/09/24 03:54:39;;;;;;;14.43;9.00;;;10.80;94.40;;;;;;5114735;28;20284;-88
2023/09/24 03:57:05;;;;;;;9.73;8.73;;;10.80;94.50;;;;;;5115910;28;20568;-89
2023/09/24 03:59:36;;;;;;;15.77;9.93;;;10.80;94.50;;;;;;5116287;28;20177;-88
2023/09/24 04:02:02;;;;;;;15.60;9.77;;;10.80;94.50;;;;;;5114728;28;20191;-89
2023/09/24 04:04:27;;;;;;;13.93;9.23;;;10.80;94.50;;;;;;5114673;28;20194;-88
2023/09/24 04:06:53;;;;;;;11.17;9.60;;;10.80;94.50;;;;;;5114513;28;20209;-89
2023/09/24 04:09:18;;;;;;;12.87;9.20;;;10.80;94.50;;;;;;5114831;28;20182;-89
2023/09/24 04:11:45;;;;;;;10.90;9.80;;;10.80;94.60;;;;;;5115735;28;20721;-89
2023/09/24 04:14:11;;;;;;;14.60;10.90;;;10.80;94.50;;;;;;5113784;28;20824;-89
2023/09/24 04:16:37;;;;;;;14.13;10.70;;;10.80;94.60;;;;;;5115596;28;20182;-89
2023/09/24 04:19:03;;;;;;;15.77;9.60;;;10.80;94.50;;;;;;5114422;28;20675;-88
2023/09/24 04:21:29;;;;;;;13.87;9.60;;;10.80;94.50;;;;;;5115900;28;20219;-89
2023/09/24 04:23:54;;;;;;;9.90;8.90;;;10.80;94.50;;;;;;5114227;28;20185;-88
2023/09/24 04:26:21;;;;;;;15.80;9.60;;;10.70;94.40;;;;;;5114200;28;20174;-89
2023/09/24 04:28:46;;;;;;;19.00;13.67;;;10.70;94.40;;;;;;5115429;28;20173;-88
2023/09/24 04:31:12;;;;;;;16.33;13.67;;;10.60;94.40;;;;;;5114160;28;20593;-89
2023/09/24 04:33:37;;;;;;;12.90;11.53;;;10.60;94.40;;;;;;5114088;28;20524;-90
2023/09/24 04:36:05;;;;;;;14.67;11.87;;;10.60;94.40;;;;;;5115385;28;20202;-89
2023/09/24 04:38:30;;;;;;;15.30;11.73;;;10.50;94.40;;;;;;5114070;28;20204;-89
2023/09/24 04:40:57;;;;;;;15.53;11.73;;;10.60;94.40;;;;;;5113890;28;20645;-90
2023/09/24 04:43:22;;;;;;;12.90;11.70;;;10.70;94.30;;;;;;5113838;28;20182;-88
2023/09/24 04:45:48;;;;;;;11.87;10.87;;;10.70;94.40;;;;;;5115486;28;20165;-89
2023/09/24 04:48:14;;;;;;;12.17;10.90;;;10.70;94.30;;;;;;5113721;28;20292;-89
2023/09/24 04:50:39;;;;;;;12.63;11.30;;;10.70;94.30;;;;;;5114906;28;20261;-88
2023/09/24 04:53:06;;;;;;;12.77;11.67;;;10.70;94.20;;;;;;5113985;28;20174;-89
2023/09/24 04:55:32;;;;;;;13.83;12.47;;;10.70;94.20;;;;;;5113470;28;20209;-89
2023/09/24 04:57:58;;;;;;;8.40;7.67;;;10.50;94.00;;;;;;5114887;28;20264;-87
2023/09/24 05:00:24;;;;;;;9.53;7.37;;;10.50;94.00;;;;;;5113816;28;20213;-88
2023/09/24 05:02:49;;;;;;;8.80;7.97;;;10.40;93.90;;;;;;5115294;28;20186;-89
2023/09/24 05:05:15;;;;;;;15.10;13.37;;;10.30;93.80;;;;;;5113408;28;20627;-89
2023/09/24 05:07:41;;;;;;;15.77;14.40;;;10.30;93.70;;;;;;5114175;28;20367;-91
2023/09/24 05:10:07;;;;;;;17.27;9.90;;;10.20;93.70;;;;;;5114133;28;20210;-88
2023/09/24 05:12:33;;;;;;;10.37;9.43;;;10.10;93.50;;;;;;5114408;28;20170;-88
2023/09/24 05:15:03;;;;;;;17.07;14.53;;;10.00;93.50;;;;;;5117102;28;20197;-91
2023/09/24 06:21:55;;;;;;;13.27;11.83;;;10.40;93.90;;;;;;4962284;28;20241;-92
2023/09/24 06:24:22;;;;;;;11.73;10.53;;;10.50;93.90;;;;;;4961773;29;20204;-92
2023/09/24 06:27:21;;;;;;;17.30;12.10;;;10.50;94.00;;;;;;4944270;29;20208;-93
2023/09/24 06:29:47;;;;;;;10.43;9.43;;;10.50;94.00;;;;;;4961547;29;20188;-93
2023/09/24 06:32:18;;;;;;;15.40;10.97;;;10.50;94.00;;;;;;4962501;28;20164;-93
2023/09/24 06:34:46;;;;;;;14.30;11.73;;;10.50;94.10;;;;;;4963153;29;20208;-92
2023/09/24 06:37:53;;;;;;;13.30;11.83;;;10.60;94.20;;;;;;4961996;29;20203;-94
2023/09/24 06:40:28;;;;;;;13.17;11.63;;;10.70;94.40;;;;;;4956671;29;20176;-92
2023/09/24 06:42:59;;;;;;;14.43;11.53;;;10.80;94.60;;;;;;4941244;29;20156;-92
2023/09/24 06:45:42;;;;;;;14.47;11.57;;;10.90;94.60;;;;;;4942427;29;20196;-93
2023/09/24 06:48:30;;;;;;;17.30;12.47;;;11.00;94.60;;;;;;4960574;29;20208;-92
2023/09/24 06:51:27;;;;;;;16.70;14.70;;;11.00;94.60;;;;;;4965219;28;20243;-93
2023/09/24 06:54:45;;;;;;;16.77;14.97;;;11.10;94.60;;;;;;4965097;28;20214;-92
2023/09/24 06:57:11;;;;;;;16.87;15.20;;;11.10;94.70;;;;;;4961154;29;20184;-93
2023/09/24 06:59:39;;;;;;;19.70;15.30;;;11.20;94.70;;;;;;4959758;29;20208;-92
2023/09/24 07:02:28;;;;;;;18.83;16.90;;;11.20;94.70;;;;;;4961892;29;20183;-93
2023/09/24 07:05:29;;;;;;;20.40;18.40;;;11.20;94.70;;;;;;4958707;29;20231;-93
2023/09/24 07:08:04;;;;;;;31.43;28.70;;;11.10;94.70;;;;;;4959220;29;20200;-93
2023/09/24 07:11:28;;;;;;;34.50;31.67;;;11.10;94.70;;;;;;4958989;29;20164;-92
2023/09/24 07:14:14;;;;;;;21.07;18.67;;;11.10;94.80;;;;;;4961221;29;20218;-92
2023/09/24 07:16:40;;;;;;;19.57;17.57;;;11.10;94.80;;;;;;4960657;29;20191;-92
2023/09/24 07:19:08;;;;;;;22.33;19.60;;;11.00;94.80;;;;;;4958717;29;20199;-92
2023/09/24 07:21:35;;;;;;;17.40;14.37;;;10.90;94.80;;;;;;4958028;29;20571;-92
2023/09/24 07:24:24;;;;;;;16.97;14.93;;;11.00;95.00;;;;;;4953953;29;20208;-93
2023/09/24 07:27:10;;;;;;;21.70;19.40;;;11.00;95.00;;;;;;4955793;28;20191;-93
2023/09/24 07:29:39;;;;;;;22.03;19.93;;;10.90;94.90;;;;;;4955496;29;20176;-92
2023/09/24 07:32:06;;;;;;;19.13;14.80;;;10.90;95.10;;;;;;4953713;29;20173;-93
2023/09/24 07:34:38;;;;;;;17.57;15.60;;;10.90;95.10;;;;;;4937683;29;20203;-92
2023/09/24 07:37:23;;;;;;;21.67;19.57;;;11.00;95.20;;;;;;4954057;29;20220;-92
2023/09/24 07:39:49;;;;;;;20.30;18.30;;;11.20;95.40;;;;;;4954234;29;20190;-93
2023/09/24 07:45:13;;;;;;;17.23;14.90;;;11.40;95.30;;;;;;4954587;29;20207;-93
2023/09/24 07:47:39;;;;;;;20.63;16.40;;;11.50;95.40;;;;;;4952276;29;20203;-92
2023/09/24 07:50:09;;;;;;;22.83;17.83;;;11.60;95.40;;;;;;4955387;29;20172;-93
2023/09/24 07:52:36;;;;;;;19.17;17.17;;;11.50;95.30;;;;;;4953898;29;20253;-93
2023/09/24 07:55:09;;;;;;;19.37;17.33;;;11.50;95.30;;;;;;4952179;29;20204;-92
2023/09/24 07:57:43;;;;;;;19.10;17.30;;;11.50;95.30;;;;;;4955089;29;20168;-93
2023/09/24 08:00:22;;;;;;;19.50;16.63;;;11.60;95.40;;;;;;4956535;29;20263;-92
2023/09/24 08:02:51;;;;;;;18.33;16.53;;;11.70;95.40;;;;;;4958778;29;20269;-92
2023/09/24 08:05:17;;;;;;;19.17;16.60;;;11.80;95.30;;;;;;4940817;29;20240;-92
2023/09/24 08:10:18;;;;;;;18.27;16.10;;;11.70;95.30;;;;;;5109844;23;20263;-92
2023/09/24 08:12:44;;;;;;;18.73;16.73;;;11.80;95.30;;;;;;5013194;28;20213;-92
2023/09/24 08:15:28;;;;;;;17.13;15.33;;;11.80;95.20;;;;;;5014189;28;20206;-92
2023/09/24 08:18:23;;;;;;;17.00;15.20;;;12.00;95.40;;;;;;5012435;28;20212;-92
2023/09/24 08:27:33;;;;;;;20.33;16.53;;;12.50;95.20;;;;;;5107356;23;20242;-92
2023/09/24 08:30:23;;;;;;;19.93;15.53;;;12.60;95.10;;;;;;4993251;28;20175;-92
2023/09/24 08:32:52;;;;;;;17.13;14.10;;;12.70;95.20;;;;;;4996367;28;20214;-93
2023/09/24 08:35:24;;;;;;;18.40;15.17;;;12.80;94.90;;;;;;4981553;28;20233;-92
2023/09/24 08:37:53;;;;;;;15.47;13.63;;;12.80;94.80;;;;;;4980486;28;20195;-93
2023/09/24 08:40:31;;;;;;;16.33;13.90;;;13.10;94.70;;;;;;4977036;28;20250;-92
2023/09/24 09:22:06;;;;;;;20.42;14.38;;;14.50;91.30;;;;;;4982997;28;20246;-94
2023/09/24 09:24:34;;;;;;;17.05;13.73;;;14.80;91.50;;;;;;4985580;28;20210;-92
2023/09/24 09:27:00;;;;;;;17.83;14.55;;;14.80;90.80;;;;;;4983616;28;20331;-93
2023/09/24 09:29:34;;;;;;;17.50;13.27;;;14.80;89.90;;;;;;4982852;28;20170;-91
2023/09/24 09:32:10;;;;;;;18.98;16.02;;;14.90;89.70;;;;;;4981376;28;20635;-92
2023/09/24 09:34:50;;;;;;;19.52;16.02;;;14.80;89.00;;;;;;4985256;28;20206;-93
2023/09/24 09:37:17;;;;;;;18.80;14.60;;;15.10;89.60;;;;;;4970197;28;20202;-92
2023/09/24 09:39:44;;;;;;;16.33;14.82;;;15.20;89.20;;;;;;4983833;28;20190;-92
2023/09/24 09:42:21;;;;;;;20.42;15.98;;;15.00;88.30;;;;;;4979362;28;20252;-92
2023/09/24 09:44:51;;;;;;;17.38;15.60;;;15.00;88.10;;;;;;4980235;28;20233;-92
2023/09/24 09:47:19;;;;;;;16.58;14.93;;;15.00;88.50;;;;;;4980665;28;20203;-92
2023/09/24 09:50:09;;;;;;;15.90;14.30;;;15.20;88.90;;;;;;4981148;28;20179;-92
2023/09/24 09:52:43;;;;;;;17.38;15.63;;;15.10;88.30;;;;;;4979739;28;20159;-91
2023/09/24 09:55:13;;;;;;;17.30;15.48;;;14.80;88.20;;;;;;4976224;28;20802;-92
2023/09/24 09:57:42;;;;;;;16.65;15.13;;;14.60;88.70;;;;;;4975554;28;20710;-93
2023/09/24 10:00:12;;;;;;;20.85;15.07;;;14.80;88.80;;;;;;4975700;28;20178;-92
2023/09/24 10:02:41;;;;;;;17.42;15.43;;;14.90;88.20;;;;;;4977762;28;20210;-91
2023/09/24 10:05:12;;;;;;;17.55;14.43;;;14.90;88.20;;;;;;4978182;28;20198;-92
2023/09/24 10:07:39;;;;;;;16.67;15.10;;;15.10;88.20;;;;;;4980667;28;20187;-92
2023/09/24 10:10:34;;;;;;;15.95;14.35;;;14.90;87.20;;;;;;4960609;28;20178;-92
2023/09/24 10:13:02;;;;;;;14.77;13.15;;;15.00;87.10;;;;;;4974079;28;20175;-92
2023/09/24 10:15:55;;;;;;;15.35;13.95;;;15.20;88.30;;;;;;4977944;28;20175;-91
2023/09/24 10:18:21;;;;;;;16.90;15.27;;;14.90;87.30;;;;;;4974375;28;20178;-92
2023/09/24 10:20:49;;;;;;;15.90;14.35;;;14.90;87.70;;;;;;4975447;28;20241;-92
2023/09/24 10:23:30;;;;;;;16.05;13.65;;;15.00;87.40;;;;;;4974959;28;20186;-91
2023/09/24 10:26:05;;;;;;;15.05;13.75;;;15.30;87.40;;;;;;4975045;28;20624;-91
2023/09/24 10:28:50;;;;;;;16.40;14.88;;;15.30;87.00;;;;;;4973911;28;20700;-91
2023/09/24 10:31:17;;;;;;;14.75;13.55;;;15.30;87.20;;;;;;4973882;28;20648;-91
2023/09/24 10:33:57;;;;;;;15.98;13.27;;;15.00;87.40;;;;;;4974099;28;20222;-91
2023/09/24 10:36:34;;;;;;;13.65;12.25;;;14.60;88.10;;;;;;4973238;28;20175;-91
2023/09/24 10:39:13;;;;;;;12.98;11.90;;;14.50;88.80;;;;;;4973970;28;20205;-91
2023/09/24 10:42:08;;;;;;;13.20;12.00;;;14.30;88.70;;;;;;4973160;28;20212;-92
2023/09/24 10:44:35;;;;;;;13.07;11.80;;;14.50;89.00;;;;;;4973102;28;20249;-91
2023/09/24 10:47:23;;;;;;;12.37;11.17;;;14.70;89.30;;;;;;4973113;28;20205;-91
2023/09/24 10:50:03;;;;;;;12.45;11.43;;;14.80;88.30;;;;;;4973235;28;20181;-90
2023/09/24 10:52:29;;;;;;;12.07;10.93;;;14.70;89.00;;;;;;4974729;28;20174;-90
2023/09/24 10:54:55;;;;;;;11.43;10.40;;;14.80;87.70;;;;;;4973078;28;20705;-91
2023/09/24 10:57:25;;;;;;;11.82;10.80;;;14.70;88.20;;;;;;4973360;28;20187;-92
2023/09/24 10:59:51;;;;;;;9.83;8.87;;;14.50;87.90;;;;;;4976702;28;20213;-91
2023/09/24 11:02:18;;;;;;;10.07;9.27;;;14.60;88.20;;;;;;4976772;28;20677;-90
2023/09/24 11:04:44;;;;;;;10.03;9.20;;;14.50;88.70;;;;;;4976894;28;20293;-90
2023/09/24 11:07:10;;;;;;;14.47;13.23;;;14.40;88.40;;;;;;4977333;28;20289;-91
2023/09/24 11:09:36;;;;;;;14.80;13.50;;;14.30;88.90;;;;;;4977896;28;20546;-90
2023/09/24 11:12:08;;;;;;;13.52;12.48;;;14.60;89.10;;;;;;4976599;28;20179;-91
2023/09/24 11:14:34;;;;;;;14.15;12.93;;;14.50;88.60;;;;;;4976916;28;20293;-91
2023/09/24 11:16:59;;;;;;;13.65;12.65;;;14.80;89.10;;;;;;4977000;28;20214;-90
2023/09/24 11:19:45;;;;;;;13.95;12.95;;;14.70;88.30;;;;;;4977435;28;20278;-91
2023/09/24 11:22:26;;;;;;;13.85;12.95;;;14.60;88.40;;;;;;4977664;28;20234;-90
2023/09/24 11:25:11;;;;;;;15.40;14.03;;;14.50;88.50;;;;;;4976936;28;20772;-91
2023/09/24 11:27:50;;;;;;;16.05;14.60;;;14.40;88.70;;;;;;4976499;28;20191;-91
2023/09/24 11:30:18;;;;;;;9.65;8.70;;;14.50;89.30;;;;;;4976028;28;20265;-91
2023/09/24 11:32:46;;;;;;;10.47;9.57;;;14.40;88.90;;;;;;4976060;28;20186;-89
2023/09/24 11:35:13;;;;;;;13.40;12.35;;;14.50;88.70;;;;;;4976025;28;20730;-90
2023/09/24 11:37:53;;;;;;;12.63;11.75;;;14.50;89.00;;;;;;4977010;28;20179;-91
2023/09/24 11:40:27;;;;;;;14.17;12.87;;;14.50;88.90;;;;;;4975914;28;20582;-90
2023/09/24 11:43:00;;;;;;;9.00;8.30;;;14.70;88.80;;;;;;4977474;28;20174;-90
2023/09/24 11:45:48;;;;;;;9.53;8.77;;;14.70;88.20;;;;;;4975816;28;20199;-90
2023/09/24 11:48:24;;;;;;;14.80;13.50;;;14.70;88.20;;;;;;4975679;28;20306;-90
2023/09/24 11:50:51;;;;;;;15.32;14.23;;;14.70;87.90;;;;;;4975750;28;20174;-91
2023/09/24 11:53:19;;;;;;;9.80;8.80;;;14.60;88.10;;;;;;4975530;28;20178;-91
2023/09/24 11:55:45;;;;;;;9.88;8.93;;;14.60;88.30;;;;;;4976337;28;20199;-90
2023/09/24 11:58:11;;;;;;;9.35;8.65;;;14.70;88.40;;;;;;4975778;28;20178;-91
2023/09/24 12:00:38;;;;;;;9.70;9.00;;;14.80;88.40;;;;;;4975936;28;20229;-90
2023/09/24 12:03:08;;;;;;;11.15;10.25;;;15.00;87.80;;;;;;4975922;28;20182;-90
2023/09/24 12:05:35;;;;;;;10.45;9.63;;;15.00;86.80;;;;;;4975864;28;20226;-92
2023/09/24 12:08:03;;;;;;;11.98;10.95;;;15.20;86.70;;;;;;4975683;28;20214;-92
2023/09/24 12:10:29;;;;;;;11.90;10.57;;;15.30;86.00;;;;;;4974852;28;20182;-91
2023/09/24 12:13:01;;;;;;;12.63;11.32;;;15.60;84.30;;;;;;4975757;28;20315;-92
2023/09/24 12:15:28;;;;;;;12.25;11.25;;;15.60;83.40;;;;;;4975591;28;20199;-91
2023/09/24 12:17:56;;;;;;;12.60;11.40;;;15.30;84.70;;;;;;4976288;28;20179;-89
2023/09/24 12:20:22;;;;;;;11.90;10.95;;;15.30;85.20;;;;;;4976683;28;20654;-91
2023/09/24 12:22:48;;;;;;;12.35;11.30;;;15.30;84.70;;;;;;4975348;28;20187;-91
2023/09/24 12:25:14;;;;;;;14.05;12.95;;;15.60;85.30;;;;;;4976388;28;20674;-91
2023/09/24 12:27:40;;;;;;;14.20;12.90;;;15.90;84.00;;;;;;4975271;28;20293;-91
2023/09/24 12:30:10;;;;;;;13.70;12.70;;;16.10;83.20;;;;;;4976265;28;20177;-91
2023/09/24 12:32:36;;;;;;;15.07;13.77;;;16.50;83.50;;;;;;4975065;28;20179;-92
2023/09/24 12:35:07;;;;;;;15.02;13.65;;;16.70;82.70;;;;;;4974942;28;20194;-91
2023/09/24 12:37:34;;;;;;;15.18;14.07;;;17.00;81.00;;;;;;4976019;28;20261;-91
2023/09/24 12:40:03;;;;;;;16.35;14.95;;;16.50;81.30;;;;;;4975070;28;20182;-91
2023/09/24 12:42:31;;;;;;;14.20;13.02;;;16.70;80.90;;;;;;4974973;28;20178;-91
2023/09/24 12:44:58;;;;;;;16.05;14.60;;;17.00;81.70;;;;;;4975786;28;20201;-91
2023/09/24 12:47:24;;;;;;;16.67;15.48;;;16.60;79.50;;;;;;4976227;28;20572;-91
2023/09/24 12:49:54;;;;;;;14.82;13.73;;;16.90;80.40;;;;;;4975409;28;20181;-91
2023/09/24 12:52:21;;;;;;;16.52;15.32;;;17.20;79.50;;;;;;4975296;28;20163;-91
2023/09/24 12:54:47;;;;;;;15.50;14.43;;;17.30;78.00;;;;;;4974357;28;20686;-91
2023/09/24 12:57:13;;;;;;;15.00;13.63;;;16.70;78.70;;;;;;4976020;28;20175;-92
2023/09/24 12:59:38;;;;;;;15.40;14.20;;;16.30;79.90;;;;;;4974778;28;20182;-90
2023/09/24 13:02:05;;;;;;;16.67;15.35;;;16.80;80.30;;;;;;4974742;28;20225;-91
2023/09/24 13:04:33;;;;;;;16.85;15.45;;;17.10;77.70;;;;;;4974543;28;20209;-91
2023/09/24 13:06:59;;;;;;;15.07;14.07;;;17.20;77.20;;;;;;4974378;28;20207;-92
2023/09/24 13:09:24;;;;;;;17.25;15.85;;;17.40;77.40;;;;;;4974612;28;20185;-91
2023/09/24 13:11:50;;;;;;;17.55;16.15;;;17.60;76.70;;;;;;4974741;28;20286;-91
2023/09/24 13:14:16;;;;;;;18.05;16.67;;;17.60;76.60;;;;;;4974616;28;20187;-91
2023/09/24 13:16:42;;;;;;;17.70;16.40;;;17.50;76.20;;;;;;4974492;28;20241;-91
2023/09/24 13:19:14;;;;;;;17.00;15.80;;;17.40;75.40;;;;;;4974626;28;20197;-90
2023/09/24 13:21:41;;;;;;;18.52;17.00;;;17.70;76.30;;;;;;4973748;28;20194;-91
2023/09/24 13:24:08;;;;;;;18.67;17.27;;;17.60;75.30;;;;;;4975499;28;20213;-91
2023/09/24 13:26:35;;;;;;;17.52;16.33;;;17.60;75.50;;;;;;4974131;28;20626;-91
2023/09/24 13:29:02;;;;;;;18.52;17.23;;;17.50;74.10;;;;;;4975716;28;20747;-91
2023/09/24 13:31:28;;;;;;;17.85;16.55;;;17.70;75.00;;;;;;4975250;28;20283;-91
2023/09/24 13:33:54;;;;;;;17.75;16.45;;;17.70;74.40;;;;;;4975812;28;20222;-91
2023/09/24 13:36:21;;;;;;;18.05;16.75;;;17.60;74.20;;;;;;4975043;28;20269;-91
2023/09/24 13:38:46;;;;;;;18.27;16.98;;;17.80;74.40;;;;;;4973867;28;20171;-91
2023/09/24 13:41:12;;;;;;;18.02;16.73;;;17.90;73.70;;;;;;4974325;28;20651;-91
2023/09/24 13:43:38;;;;;;;18.52;17.02;;;18.20;73.80;;;;;;4973984;28;20206;-90
2023/09/24 13:46:04;;;;;;;18.83;17.25;;;18.40;72.90;;;;;;4974541;28;20328;-91
2023/09/24 13:48:30;;;;;;;19.02;17.35;;;18.20;72.70;;;;;;4974006;28;20758;-90
2023/09/24 13:50:56;;;;;;;18.35;17.02;;;18.10;73.00;;;;;;4975287;28;20171;-91
2023/09/24 13:53:21;;;;;;;18.27;16.88;;;18.20;73.10;;;;;;4973723;28;20171;-91
2023/09/24 13:55:48;;;;;;;18.25;16.92;;;18.10;74.10;;;;;;4973917;28;20226;-91
2023/09/24 13:58:14;;;;;;;18.63;16.95;;;18.30;73.20;;;;;;4973963;28;20174;-91
2023/09/24 14:00:45;;;;;;;18.15;16.88;;;18.50;73.20;;;;;;4973932;28;20208;-90
2023/09/24 14:03:11;;;;;;;17.52;15.93;;;18.40;73.00;;;;;;4973916;28;20167;-91
2023/09/24 14:05:37;;;;;;;26.67;24.75;;;18.50;73.40;;;;;;4973693;28;20206;-90
2023/09/24 14:13:31;;;;;;;18.65;17.25;;;19.00;72.50;;;;;;4975098;28;20689;-91
2023/09/24 14:15:57;;;;;;;18.90;17.50;;;18.90;71.30;;;;;;4974126;28;20195;-90
2023/09/24 14:18:22;;;;;;;18.42;16.92;;;18.80;71.10;;;;;;4973730;28;20182;-90
2023/09/24 14:20:48;;;;;;;26.60;24.60;;;19.00;70.60;;;;;;4974081;28;20198;-91
2023/09/24 14:23:14;;;;;;;29.90;27.77;;;19.20;70.60;;;;;;4974031;28;20266;-91
2023/09/24 14:25:41;;;;;;;29.48;27.48;;;19.10;69.70;;;;;;4973827;28;20206;-90
2023/09/24 14:28:08;;;;;;;19.50;18.00;;;19.10;71.30;;;;;;4974100;28;20209;-90
2023/09/24 14:30:38;;;;;;;19.33;17.80;;;19.00;70.10;;;;;;4974691;28;20198;-90
2023/09/24 14:33:04;;;;;;;29.40;27.20;;;19.00;70.40;;;;;;4976303;28;20175;-90
2023/09/24 14:35:30;;;;;;;31.88;29.67;;;19.00;69.60;;;;;;4978366;28;20221;-90
2023/09/24 14:37:56;;;;;;;18.92;17.45;;;19.00;70.70;;;;;;4977787;28;20646;-90
2023/09/24 14:40:21;;;;;;;17.50;16.05;;;18.80;70.10;;;;;;4977401;28;20650;-90
2023/09/24 14:42:49;;;;;;;18.92;17.38;;;18.90;70.60;;;;;;4978113;28;20183;-90